Time;durP1;ratioP1;P1;durP2;ratioP2;P2;SDS_P1;SDS_P2;PMS_P1;PMS_P2;Temp;Humidity;BMP_temperature;BMP_pressure;BME280_temperature;BME280_humidity;BME280_pressure;Samples;Min_cycle;Max_cycle;Signal;HPM_P1;HPM_P2
2019/06/16 00:01:39;;;;;;;2.02;1.56;;;;;;;21.41;55.33;100795.06;;;;-50
2019/06/16 00:04:39;;;;;;;3.21;1.64;;;;;;;21.41;55.31;100795.22;;;;-49
2019/06/16 00:07:39;;;;;;;1.90;1.54;;;;;;;21.41;55.32;100797.64;;;;-50
2019/06/16 00:10:39;;;;;;;2.46;1.80;;;;;;;21.40;55.31;100800.22;;;;-51
2019/06/16 00:13:39;;;;;;;1.85;1.46;;;;;;;21.40;55.30;100804.26;;;;-50
2019/06/16 00:16:39;;;;;;;2.17;1.60;;;;;;;21.40;55.34;100799.52;;;;-50
2019/06/16 00:19:39;;;;;;;2.37;1.55;;;;;;;21.40;55.30;100798.17;;;;-50
2019/06/16 00:22:39;;;;;;;1.89;1.50;;;;;;;21.39;55.34;100805.33;;;;-50
2019/06/16 00:25:39;;;;;;;1.93;1.60;;;;;;;21.40;55.30;100809.77;;;;-50
2019/06/16 00:28:39;;;;;;;1.71;1.58;;;;;;;21.39;55.34;100813.35;;;;-50
2019/06/16 00:31:39;;;;;;;2.25;1.61;;;;;;;21.38;55.33;100815.26;;;;-50
2019/06/16 00:34:39;;;;;;;1.73;1.61;;;;;;;21.39;55.33;100818.89;;;;-50
2019/06/16 00:37:39;;;;;;;1.75;1.65;;;;;;;21.38;55.32;100819.19;;;;-50
2019/06/16 00:40:39;;;;;;;2.47;1.63;;;;;;;21.38;55.33;100820.53;;;;-50
2019/06/16 00:43:39;;;;;;;1.68;1.58;;;;;;;21.38;55.34;100823.13;;;;-51
2019/06/16 00:46:39;;;;;;;1.87;1.60;;;;;;;21.37;55.33;100821.00;;;;-49
2019/06/16 00:49:39;;;;;;;2.01;1.60;;;;;;;21.36;55.32;100822.50;;;;-50
2019/06/16 00:52:39;;;;;;;1.95;1.50;;;;;;;21.37;55.33;100822.91;;;;-51
2019/06/16 00:55:39;;;;;;;1.68;1.58;;;;;;;21.37;55.31;100823.58;;;;-50
2019/06/16 00:58:39;;;;;;;2.01;1.61;;;;;;;21.36;55.34;100822.56;;;;-50
2019/06/16 01:01:39;;;;;;;1.77;1.63;;;;;;;21.36;55.34;100826.70;;;;-50
2019/06/16 01:04:39;;;;;;;2.83;1.52;;;;;;;21.34;55.29;100825.44;;;;-50
2019/06/16 01:07:39;;;;;;;1.65;1.50;;;;;;;21.35;55.28;100827.06;;;;-50
2019/06/16 01:10:39;;;;;;;2.67;1.66;;;;;;;21.35;55.32;100828.23;;;;-50
2019/06/16 01:13:39;;;;;;;1.82;1.54;;;;;;;21.35;55.33;100834.52;;;;-50
2019/06/16 01:16:39;;;;;;;1.60;1.50;;;;;;;21.35;55.34;100834.28;;;;-51
2019/06/16 01:19:39;;;;;;;1.85;1.57;;;;;;;21.35;55.32;100836.97;;;;-51
2019/06/16 01:22:39;;;;;;;1.53;1.43;;;;;;;21.34;55.33;100841.63;;;;-51
2019/06/16 01:25:39;;;;;;;1.69;1.59;;;;;;;21.34;55.32;100851.28;;;;-51
2019/06/16 01:28:39;;;;;;;1.62;1.52;;;;;;;21.33;55.36;100853.96;;;;-51
2019/06/16 01:31:39;;;;;;;1.68;1.58;;;;;;;21.34;55.34;100858.94;;;;-50
2019/06/16 01:34:39;;;;;;;1.95;1.57;;;;;;;21.33;55.37;100861.92;;;;-50
2019/06/16 01:37:38;;;;;;;1.71;1.61;;;;;;;21.32;55.33;100863.73;;;;-50
2019/06/16 01:40:39;;;;;;;1.59;1.49;;;;;;;21.33;55.34;100866.69;;;;-50
2019/06/16 01:43:39;;;;;;;1.85;1.50;;;;;;;21.32;55.37;100865.30;;;;-50
2019/06/16 01:46:39;;;;;;;1.59;1.49;;;;;;;21.32;55.37;100863.39;;;;-49
2019/06/16 01:49:39;;;;;;;1.61;1.51;;;;;;;21.31;55.37;100870.47;;;;-50
2019/06/16 01:52:39;;;;;;;2.11;1.50;;;;;;;21.31;55.36;100870.06;;;;-50
2019/06/16 01:55:39;;;;;;;1.80;1.59;;;;;;;21.31;55.36;100872.92;;;;-50
2019/06/16 01:58:38;;;;;;;1.78;1.60;;;;;;;21.31;55.34;100869.97;;;;-50
2019/06/16 02:01:39;;;;;;;1.72;1.59;;;;;;;21.31;55.37;100873.42;;;;-51
2019/06/16 02:04:39;;;;;;;1.71;1.60;;;;;;;21.30;55.35;100872.70;;;;-50
2019/06/16 02:07:39;;;;;;;1.70;1.60;;;;;;;21.30;55.37;100873.62;;;;-50
2019/06/16 02:10:39;;;;;;;1.77;1.49;;;;;;;21.30;55.36;100879.94;;;;-50
2019/06/16 02:13:39;;;;;;;1.64;1.54;;;;;;;21.29;55.36;100880.67;;;;-50
2019/06/16 02:16:39;;;;;;;2.07;1.51;;;;;;;21.29;55.38;100883.31;;;;-50
2019/06/16 02:19:39;;;;;;;1.60;1.50;;;;;;;21.29;55.37;100888.46;;;;-50
2019/06/16 02:22:39;;;;;;;1.72;1.50;;;;;;;21.29;55.40;100889.87;;;;-50
2019/06/16 02:25:39;;;;;;;1.60;1.50;;;;;;;21.28;55.39;100894.91;;;;-50
2019/06/16 02:28:39;;;;;;;2.01;1.65;;;;;;;21.29;55.37;100903.48;;;;-50
2019/06/16 02:31:39;;;;;;;1.63;1.53;;;;;;;21.28;55.37;100904.20;;;;-50
2019/06/16 02:34:39;;;;;;;1.72;1.62;;;;;;;21.28;55.40;100906.33;;;;-49
2019/06/16 02:37:38;;;;;;;1.60;1.50;;;;;;;21.28;55.34;100911.37;;;;-50
2019/06/16 02:40:39;;;;;;;1.63;1.53;;;;;;;21.28;55.40;100919.50;;;;-50
2019/06/16 02:43:39;;;;;;;2.14;1.61;;;;;;;21.28;55.33;100924.09;;;;-50
2019/06/16 02:46:39;;;;;;;1.77;1.66;;;;;;;21.28;55.37;100927.45;;;;-50
2019/06/16 02:49:39;;;;;;;1.73;1.63;;;;;;;21.26;55.37;100928.25;;;;-50
2019/06/16 02:52:39;;;;;;;1.87;1.61;;;;;;;21.27;55.36;100931.98;;;;-50
2019/06/16 02:55:39;;;;;;;1.73;1.63;;;;;;;21.27;55.40;100936.52;;;;-49
2019/06/16 02:58:38;;;;;;;1.68;1.58;;;;;;;21.27;55.39;100942.53;;;;-51
2019/06/16 03:01:39;;;;;;;1.81;1.64;;;;;;;21.27;55.39;100942.80;;;;-50
2019/06/16 03:04:39;;;;;;;1.61;1.51;;;;;;;21.26;55.38;100950.76;;;;-50
2019/06/16 03:07:39;;;;;;;2.19;1.73;;;;;;;21.26;55.39;100951.49;;;;-50
2019/06/16 03:10:39;;;;;;;1.80;1.70;;;;;;;21.26;55.37;100954.28;;;;-50
2019/06/16 03:13:39;;;;;;;2.04;1.63;;;;;;;21.26;55.39;100960.40;;;;-50
2019/06/16 03:16:38;;;;;;;1.71;1.45;;;;;;;21.26;55.38;100960.90;;;;-50
2019/06/16 03:19:39;;;;;;;1.71;1.61;;;;;;;21.26;55.39;100962.58;;;;-50
2019/06/16 03:22:39;;;;;;;1.75;1.65;;;;;;;21.25;55.38;100963.71;;;;-50
2019/06/16 03:25:39;;;;;;;1.79;1.69;;;;;;;21.25;55.37;100965.33;;;;-49
2019/06/16 03:28:39;;;;;;;1.70;1.60;;;;;;;21.25;55.38;100963.55;;;;-50
2019/06/16 03:31:39;;;;;;;1.68;1.58;;;;;;;21.25;55.37;100967.58;;;;-51
2019/06/16 03:34:38;;;;;;;1.83;1.73;;;;;;;21.25;55.36;100962.80;;;;-50
2019/06/16 03:37:39;;;;;;;1.69;1.58;;;;;;;21.24;55.37;100957.89;;;;-50
2019/06/16 03:40:39;;;;;;;1.70;1.60;;;;;;;21.24;55.39;100951.56;;;;-50
2019/06/16 03:43:39;;;;;;;1.69;1.59;;;;;;;21.24;55.36;100951.34;;;;-50
2019/06/16 03:46:39;;;;;;;1.60;1.50;;;;;;;21.24;55.44;100953.25;;;;-50
2019/06/16 03:49:39;;;;;;;1.76;1.66;;;;;;;21.24;55.39;100959.13;;;;-50
2019/06/16 03:52:39;;;;;;;1.60;1.50;;;;;;;21.24;55.37;100956.71;;;;-50
2019/06/16 03:55:39;;;;;;;1.81;1.60;;;;;;;21.24;55.37;100959.73;;;;-50
2019/06/16 03:58:38;;;;;;;1.65;1.55;;;;;;;21.24;55.37;100961.98;;;;-50
2019/06/16 04:01:39;;;;;;;1.67;1.57;;;;;;;21.23;55.37;100959.76;;;;-50
2019/06/16 04:04:38;;;;;;;1.80;1.70;;;;;;;21.22;55.38;100958.81;;;;-50
2019/06/16 04:07:39;;;;;;;1.69;1.59;;;;;;;21.22;55.38;100959.04;;;;-49
2019/06/16 04:10:39;;;;;;;1.65;1.55;;;;;;;21.22;55.34;100959.55;;;;-50
2019/06/16 04:13:38;;;;;;;1.85;1.69;;;;;;;21.22;55.38;100963.02;;;;-50
2019/06/16 04:16:38;;;;;;;1.79;1.60;;;;;;;21.22;55.35;100962.90;;;;-50
2019/06/16 04:19:39;;;;;;;1.71;1.61;;;;;;;21.22;55.39;100966.03;;;;-50
2019/06/16 04:22:39;;;;;;;1.70;1.60;;;;;;;21.21;55.36;100968.41;;;;-50
2019/06/16 04:25:39;;;;;;;1.69;1.59;;;;;;;21.21;55.41;100966.88;;;;-50
2019/06/16 04:28:39;;;;;;;1.83;1.65;;;;;;;21.20;55.39;100966.28;;;;-50
2019/06/16 04:31:38;;;;;;;1.77;1.65;;;;;;;21.20;55.39;100966.78;;;;-50
2019/06/16 04:34:38;;;;;;;1.79;1.69;;;;;;;21.20;55.40;100970.38;;;;-50
2019/06/16 04:37:38;;;;;;;1.75;1.63;;;;;;;21.21;55.37;100975.73;;;;-50
2019/06/16 04:40:38;;;;;;;1.96;1.60;;;;;;;21.21;55.40;100975.95;;;;-51
2019/06/16 04:43:39;;;;;;;1.60;1.50;;;;;;;21.20;55.38;100972.05;;;;-51
2019/06/16 04:46:39;;;;;;;1.65;1.55;;;;;;;21.20;55.39;100972.55;;;;-50
2019/06/16 04:49:39;;;;;;;1.70;1.60;;;;;;;21.19;55.43;100977.65;;;;-50
2019/06/16 04:52:38;;;;;;;1.70;1.60;;;;;;;21.19;55.39;100978.50;;;;-50
2019/06/16 04:55:39;;;;;;;2.17;1.59;;;;;;;21.19;55.38;100976.71;;;;-50
2019/06/16 04:58:39;;;;;;;1.72;1.62;;;;;;;21.18;55.41;100981.41;;;;-50
2019/06/16 05:01:39;;;;;;;1.59;1.49;;;;;;;21.19;55.41;100985.27;;;;-62
2019/06/16 05:04:39;;;;;;;1.85;1.73;;;;;;;21.18;55.41;100990.14;;;;-62
2019/06/16 05:07:39;;;;;;;1.59;1.49;;;;;;;21.18;55.39;100989.59;;;;-63
2019/06/16 05:10:39;;;;;;;1.75;1.61;;;;;;;21.17;55.42;100991.94;;;;-62
2019/06/16 05:13:38;;;;;;;2.32;1.70;;;;;;;21.18;55.40;100998.03;;;;-63
2019/06/16 05:16:38;;;;;;;1.61;1.51;;;;;;;21.17;55.39;100997.65;;;;-63
2019/06/16 05:19:39;;;;;;;1.70;1.60;;;;;;;21.17;55.39;101000.17;;;;-63
2019/06/16 05:22:38;;;;;;;1.60;1.50;;;;;;;21.17;55.39;101000.51;;;;-62
2019/06/16 05:25:39;;;;;;;1.70;1.60;;;;;;;21.17;55.40;101001.52;;;;-62
2019/06/16 05:28:39;;;;;;;1.70;1.60;;;;;;;21.17;55.38;101006.17;;;;-63
2019/06/16 05:31:38;;;;;;;1.72;1.62;;;;;;;21.17;55.40;101005.11;;;;-62
2019/06/16 05:34:38;;;;;;;1.70;1.60;;;;;;;21.17;55.38;101009.03;;;;-63
2019/06/16 05:37:39;;;;;;;1.58;1.48;;;;;;;21.15;55.35;101010.06;;;;-54
2019/06/16 05:40:39;;;;;;;1.66;1.56;;;;;;;21.16;55.35;101014.13;;;;-54
2019/06/16 05:43:39;;;;;;;1.65;1.51;;;;;;;21.16;55.36;101014.02;;;;-53
2019/06/16 05:46:39;;;;;;;1.72;1.62;;;;;;;21.15;55.34;101013.85;;;;-54
2019/06/16 05:49:39;;;;;;;1.55;1.45;;;;;;;21.15;55.29;101008.88;;;;-54
2019/06/16 05:52:38;;;;;;;1.69;1.55;;;;;;;21.15;55.33;101012.75;;;;-54
2019/06/16 05:55:38;;;;;;;1.65;1.51;;;;;;;21.15;55.33;101016.11;;;;-54
2019/06/16 05:58:39;;;;;;;1.60;1.50;;;;;;;21.15;55.34;101018.72;;;;-54
2019/06/16 06:01:39;;;;;;;1.60;1.50;;;;;;;21.15;55.35;101017.88;;;;-54
2019/06/16 06:04:39;;;;;;;1.70;1.60;;;;;;;21.14;55.33;101018.06;;;;-54
2019/06/16 06:07:39;;;;;;;1.75;1.50;;;;;;;21.14;55.32;101021.53;;;;-54
2019/06/16 06:10:38;;;;;;;1.67;1.57;;;;;;;21.14;55.38;101025.97;;;;-54
2019/06/16 06:13:39;;;;;;;1.45;1.35;;;;;;;21.15;55.36;101028.42;;;;-54
2019/06/16 06:16:39;;;;;;;1.70;1.60;;;;;;;21.15;55.35;101033.30;;;;-54
2019/06/16 06:19:39;;;;;;;1.52;1.42;;;;;;;21.14;55.39;101033.35;;;;-54
2019/06/16 06:22:39;;;;;;;1.63;1.53;;;;;;;21.13;55.33;101030.72;;;;-53
2019/06/16 06:25:39;;;;;;;1.80;1.53;;;;;;;21.13;55.33;101030.45;;;;-54
2019/06/16 06:28:38;;;;;;;1.63;1.53;;;;;;;21.14;55.35;101035.27;;;;-53
2019/06/16 06:31:39;;;;;;;2.01;1.70;;;;;;;21.13;55.32;101040.19;;;;-54
2019/06/16 06:34:38;;;;;;;1.73;1.63;;;;;;;21.13;55.35;101038.52;;;;-54
2019/06/16 06:37:38;;;;;;;1.60;1.50;;;;;;;21.13;55.33;101043.89;;;;-54
2019/06/16 06:40:39;;;;;;;1.57;1.47;;;;;;;21.13;55.31;101042.88;;;;-54
2019/06/16 06:43:39;;;;;;;1.59;1.49;;;;;;;21.12;55.34;101040.42;;;;-53
2019/06/16 06:46:39;;;;;;;1.88;1.51;;;;;;;21.12;55.36;101047.37;;;;-54
2019/06/16 06:49:38;;;;;;;1.65;1.55;;;;;;;21.12;55.29;101046.36;;;;-53
2019/06/16 06:52:39;;;;;;;1.60;1.50;;;;;;;21.13;55.34;101051.89;;;;-54
2019/06/16 06:55:38;;;;;;;1.60;1.50;;;;;;;21.12;55.32;101050.06;;;;-54
2019/06/16 06:58:39;;;;;;;1.61;1.51;;;;;;;21.12;55.31;101050.73;;;;-62
2019/06/16 07:01:39;;;;;;;1.75;1.50;;;;;;;21.12;55.28;101045.42;;;;-62
2019/06/16 07:04:39;;;;;;;1.60;1.50;;;;;;;21.11;55.26;101045.48;;;;-63
2019/06/16 07:07:39;;;;;;;1.53;1.43;;;;;;;21.11;55.25;101045.64;;;;-61
2019/06/16 07:10:39;;;;;;;1.70;1.60;;;;;;;21.12;55.28;101050.22;;;;-62
2019/06/16 07:13:38;;;;;;;1.59;1.49;;;;;;;21.12;55.32;101053.58;;;;-63
2019/06/16 07:16:38;;;;;;;1.58;1.48;;;;;;;21.12;55.29;101057.51;;;;-62
2019/06/16 07:19:39;;;;;;;1.79;1.58;;;;;;;21.11;55.26;101058.08;;;;-61
2019/06/16 07:22:41;;;;;;;1.61;1.51;;;;;;;21.12;55.27;101064.73;;;;-62
2019/06/16 07:25:38;;;;;;;1.60;1.50;;;;;;;21.12;55.28;101063.33;;;;-62
2019/06/16 07:28:39;;;;;;;1.70;1.60;;;;;;;21.12;55.27;101067.86;;;;-62
2019/06/16 07:31:39;;;;;;;1.60;1.50;;;;;;;21.11;55.24;101068.83;;;;-63
2019/06/16 07:34:38;;;;;;;1.67;1.57;;;;;;;21.11;55.23;101072.86;;;;-62
2019/06/16 07:37:38;;;;;;;1.60;1.50;;;;;;;21.11;55.26;101073.19;;;;-62
2019/06/16 07:40:39;;;;;;;1.60;1.50;;;;;;;21.11;55.21;101077.89;;;;-63
2019/06/16 07:43:39;;;;;;;1.73;1.60;;;;;;;21.11;55.21;101082.09;;;;-62
2019/06/16 07:46:39;;;;;;;1.60;1.50;;;;;;;21.11;55.23;101082.42;;;;-62
2019/06/16 07:49:38;;;;;;;1.61;1.51;;;;;;;21.10;55.24;101080.73;;;;-62
2019/06/16 07:52:38;;;;;;;1.50;1.40;;;;;;;21.11;55.23;101084.94;;;;-61
2019/06/16 07:55:38;;;;;;;1.50;1.40;;;;;;;21.12;55.21;101089.02;;;;-62
2019/06/16 07:58:38;;;;;;;1.60;1.50;;;;;;;21.11;55.25;101085.84;;;;-61
2019/06/16 08:01:39;;;;;;;1.69;1.59;;;;;;;21.11;55.21;101088.53;;;;-62
2019/06/16 08:04:39;;;;;;;1.60;1.50;;;;;;;21.11;55.20;101092.90;;;;-61
2019/06/16 08:07:38;;;;;;;1.70;1.60;;;;;;;21.08;58.27;101096.66;;;;-62
2019/06/16 08:10:39;;;;;;;13.91;3.56;;;;;;;21.03;60.68;101096.59;;;;-59
2019/06/16 08:13:38;;;;;;;8.33;3.31;;;;;;;21.03;60.13;101102.63;;;;-62
2019/06/16 08:16:39;;;;;;;6.39;3.11;;;;;;;21.08;59.76;101106.34;;;;-60
2019/06/16 08:19:39;;;;;;;6.20;3.18;;;;;;;21.14;59.41;101110.62;;;;-63
2019/06/16 08:22:39;;;;;;;5.85;3.01;;;;;;;21.16;58.78;101106.69;;;;-59
2019/06/16 08:25:39;;;;;;;21.06;3.53;;;;;;;21.17;58.78;101107.50;;;;-58
2019/06/16 08:28:38;;;;;;;7.83;3.09;;;;;;;21.21;58.57;101107.48;;;;-60
2019/06/16 08:31:38;;;;;;;10.38;2.88;;;;;;;21.23;58.20;101109.61;;;;-60
2019/06/16 08:34:38;;;;;;;3.92;2.79;;;;;;;21.25;57.92;101103.31;;;;-60
2019/06/16 08:37:38;;;;;;;9.11;2.79;;;;;;;21.27;57.73;101109.69;;;;-60
2019/06/16 08:40:39;;;;;;;5.91;2.75;;;;;;;21.28;57.57;101115.83;;;;-61
2019/06/16 08:43:39;;;;;;;5.75;2.71;;;;;;;21.30;57.69;101116.98;;;;-58
2019/06/16 08:46:38;;;;;;;11.75;3.31;;;;;;;21.31;57.70;101119.46;;;;-65
2019/06/16 08:49:38;;;;;;;11.21;2.80;;;;;;;21.34;57.60;101125.82;;;;-61
2019/06/16 08:52:39;;;;;;;6.77;2.68;;;;;;;21.35;57.48;101124.56;;;;-60
2019/06/16 08:55:39;;;;;;;11.89;2.81;;;;;;;21.37;57.54;101120.63;;;;-59
2019/06/16 08:58:39;;;;;;;11.07;2.91;;;;;;;21.40;57.39;101123.25;;;;-62
2019/06/16 09:01:39;;;;;;;5.89;2.87;;;;;;;21.40;57.41;101119.31;;;;-60
2019/06/16 09:04:39;;;;;;;6.30;2.61;;;;;;;21.41;57.16;101124.03;;;;-51
2019/06/16 09:07:38;;;;;;;7.10;2.69;;;;;;;21.42;57.31;101128.28;;;;-56
2019/06/16 09:10:38;;;;;;;4.22;2.56;;;;;;;21.42;57.25;101125.06;;;;-52
2019/06/16 09:13:38;;;;;;;5.09;2.59;;;;;;;21.44;57.13;101127.64;;;;-52
2019/06/16 09:16:38;;;;;;;6.11;2.55;;;;;;;21.44;56.99;101130.89;;;;-52
2019/06/16 09:19:39;;;;;;;4.44;2.44;;;;;;;21.44;56.89;101128.81;;;;-57
2019/06/16 09:22:39;;;;;;;5.00;2.49;;;;;;;21.45;56.99;101129.36;;;;-56
2019/06/16 09:25:38;;;;;;;7.11;2.70;;;;;;;21.45;57.06;101129.97;;;;-59
2019/06/16 09:28:38;;;;;;;6.82;3.03;;;;;;;21.46;57.07;101132.78;;;;-50
2019/06/16 09:31:38;;;;;;;6.28;2.77;;;;;;;21.47;56.93;101132.49;;;;-50
2019/06/16 09:34:38;;;;;;;6.71;2.56;;;;;;;21.47;56.71;101133.59;;;;-54
2019/06/16 09:37:39;;;;;;;6.73;2.85;;;;;;;21.47;56.98;101133.89;;;;-51
2019/06/16 09:40:39;;;;;;;7.98;2.56;;;;;;;21.48;56.85;101133.38;;;;-51
2019/06/16 09:43:38;;;;;;;8.27;2.79;;;;;;;21.49;56.88;101134.70;;;;-52
2019/06/16 09:46:38;;;;;;;6.34;2.72;;;;;;;21.49;56.68;101136.28;;;;-61
2019/06/16 09:49:39;;;;;;;11.10;2.69;;;;;;;21.50;56.71;101133.91;;;;-48
2019/06/16 09:52:38;;;;;;;8.64;2.77;;;;;;;21.51;56.75;101133.28;;;;-61
2019/06/16 09:55:38;;;;;;;8.97;2.75;;;;;;;21.53;56.71;101134.69;;;;-52
2019/06/16 09:58:39;;;;;;;6.25;2.67;;;;;;;21.53;56.56;101132.70;;;;-56
2019/06/16 10:01:39;;;;;;;8.85;2.61;;;;;;;21.55;56.64;101133.64;;;;-53
2019/06/16 10:04:39;;;;;;;7.45;2.40;;;;;;;21.56;56.56;101135.20;;;;-51
2019/06/16 10:07:38;;;;;;;7.45;2.61;;;;;;;21.56;56.58;101131.06;;;;-51
2019/06/16 10:10:38;;;;;;;7.65;2.75;;;;;;;21.56;56.50;101126.02;;;;-62
2019/06/16 10:13:38;;;;;;;4.81;2.43;;;;;;;21.56;56.46;101128.64;;;;-61
2019/06/16 10:16:39;;;;;;;5.83;2.61;;;;;;;21.57;56.56;101127.08;;;;-60
2019/06/16 10:19:39;;;;;;;7.31;2.67;;;;;;;21.58;56.43;101124.66;;;;-51
2019/06/16 10:22:39;;;;;;;8.19;2.89;;;;;;;21.59;56.44;101124.58;;;;-54
2019/06/16 10:25:38;;;;;;;8.43;2.49;;;;;;;21.60;56.46;101119.75;;;;-51
2019/06/16 10:28:38;;;;;;;7.08;2.80;;;;;;;21.61;56.42;101121.31;;;;-56
2019/06/16 10:31:38;;;;;;;7.93;2.55;;;;;;;21.60;56.26;101122.81;;;;-54
2019/06/16 10:34:39;;;;;;;5.38;2.62;;;;;;;21.61;56.36;101121.31;;;;-53
2019/06/16 10:37:38;;;;;;;5.64;2.85;;;;;;;21.60;56.34;101117.33;;;;-56
2019/06/16 10:40:39;;;;;;;8.52;2.72;;;;;;;21.61;56.50;101116.81;;;;-52
2019/06/16 10:43:38;;;;;;;4.18;2.65;;;;;;;21.62;56.32;101116.55;;;;-53
2019/06/16 10:46:38;;;;;;;6.39;2.62;;;;;;;21.63;56.30;101115.75;;;;-56
2019/06/16 10:49:38;;;;;;;6.09;2.69;;;;;;;21.63;56.25;101110.68;;;;-54
2019/06/16 10:52:39;;;;;;;6.75;2.60;;;;;;;21.64;56.20;101115.13;;;;-50
2019/06/16 10:55:38;;;;;;;5.55;2.64;;;;;;;21.64;56.26;101114.39;;;;-54
2019/06/16 10:58:39;;;;;;;6.90;2.51;;;;;;;21.66;56.20;101116.39;;;;-50
2019/06/16 11:01:39;;;;;;;4.37;2.65;;;;;;;21.66;56.04;101114.55;;;;-52
2019/06/16 11:04:39;;;;;;;5.73;2.77;;;;;;;21.63;56.15;101108.13;;;;-52
2019/06/16 11:07:38;;;;;;;8.08;2.77;;;;;;;21.61;56.16;101111.50;;;;-53
2019/06/16 11:10:39;;;;;;;8.59;2.93;;;;;;;21.60;56.15;101107.75;;;;-53
2019/06/16 11:13:38;;;;;;;6.08;2.75;;;;;;;21.60;56.14;101105.29;;;;-53
2019/06/16 11:16:38;;;;;;;6.29;2.74;;;;;;;21.59;56.16;101103.62;;;;-53
2019/06/16 11:19:39;;;;;;;7.58;2.82;;;;;;;21.58;56.09;101102.98;;;;-52
2019/06/16 11:22:38;;;;;;;5.43;2.67;;;;;;;21.57;56.11;101097.16;;;;-53
2019/06/16 11:25:38;;;;;;;5.42;2.82;;;;;;;21.56;56.11;101096.61;;;;-53
2019/06/16 11:28:38;;;;;;;6.76;2.57;;;;;;;21.55;56.09;101098.30;;;;-53
2019/06/16 11:31:39;;;;;;;6.42;2.60;;;;;;;21.54;55.97;101095.44;;;;-52
2019/06/16 11:34:38;;;;;;;5.00;2.71;;;;;;;21.55;55.96;101096.56;;;;-53
2019/06/16 11:37:39;;;;;;;5.10;2.44;;;;;;;21.55;55.89;101091.25;;;;-53
2019/06/16 11:40:39;;;;;;;5.59;2.75;;;;;;;21.55;55.96;101091.84;;;;-52
2019/06/16 11:43:38;;;;;;;3.79;2.54;;;;;;;21.53;55.93;101087.73;;;;-53
2019/06/16 11:46:38;;;;;;;6.30;2.82;;;;;;;21.53;55.94;101090.14;;;;-53
2019/06/16 11:49:38;;;;;;;3.61;2.58;;;;;;;21.53;55.78;101086.55;;;;-48
2019/06/16 11:52:39;;;;;;;3.66;2.61;;;;;;;21.53;55.86;101081.95;;;;-49
2019/06/16 11:55:39;;;;;;;3.97;2.45;;;;;;;21.52;55.82;101077.70;;;;-50
2019/06/16 11:58:39;;;;;;;3.64;2.38;;;;;;;21.52;55.74;101075.08;;;;-54
2019/06/16 12:01:38;;;;;;;3.13;2.43;;;;;;;21.53;55.75;101075.79;;;;-53
2019/06/16 12:04:38;;;;;;;4.92;2.78;;;;;;;21.52;55.66;101074.97;;;;-53
2019/06/16 12:07:38;;;;;;;4.73;2.66;;;;;;;21.52;55.75;101076.15;;;;-48
2019/06/16 12:10:38;;;;;;;4.68;2.65;;;;;;;21.54;55.69;101076.00;;;;-49
2019/06/16 12:13:39;;;;;;;5.45;2.76;;;;;;;21.55;55.71;101079.98;;;;-50
2019/06/16 12:16:38;;;;;;;3.90;2.44;;;;;;;21.57;55.65;101075.03;;;;-56
2019/06/16 12:19:38;;;;;;;3.69;2.46;;;;;;;21.59;55.67;101078.39;;;;-59
2019/06/16 12:22:38;;;;;;;5.51;2.60;;;;;;;21.61;55.72;101081.97;;;;-60
2019/06/16 12:25:38;;;;;;;4.73;2.42;;;;;;;21.63;55.68;101081.05;;;;-51
2019/06/16 12:28:38;;;;;;;4.28;2.51;;;;;;;21.63;55.71;101081.05;;;;-49
2019/06/16 12:31:39;;;;;;;4.77;2.46;;;;;;;21.65;55.73;101079.91;;;;-47
2019/06/16 12:34:38;;;;;;;4.63;2.40;;;;;;;21.67;55.76;101086.28;;;;-46
2019/06/16 12:37:39;;;;;;;4.45;2.68;;;;;;;21.66;55.78;101088.19;;;;-47
2019/06/16 12:40:39;;;;;;;4.03;2.49;;;;;;;21.67;55.72;101089.65;;;;-47
2019/06/16 12:43:38;;;;;;;4.61;2.75;;;;;;;21.69;55.68;101090.41;;;;-46
2019/06/16 12:46:38;;;;;;;4.64;2.51;;;;;;;21.70;55.77;101083.96;;;;-48
2019/06/16 12:49:38;;;;;;;7.13;2.64;;;;;;;21.72;55.71;101082.20;;;;-49
2019/06/16 12:52:38;;;;;;;4.49;2.50;;;;;;;21.72;55.76;101086.17;;;;-52
2019/06/16 12:55:38;;;;;;;3.33;2.29;;;;;;;21.72;55.74;101082.81;;;;-52
2019/06/16 12:58:38;;;;;;;5.27;2.41;;;;;;;21.72;55.79;101078.20;;;;-51
2019/06/16 13:01:38;;;;;;;6.05;2.39;;;;;;;21.74;55.71;101075.77;;;;-52
2019/06/16 13:04:38;;;;;;;4.73;2.65;;;;;;;21.72;55.73;101069.70;;;;-51
2019/06/16 13:07:39;;;;;;;5.99;2.36;;;;;;;21.74;55.76;101070.02;;;;-49
2019/06/16 13:10:39;;;;;;;5.54;2.42;;;;;;;21.73;55.97;101064.30;;;;-49
2019/06/16 13:13:39;;;;;;;6.69;2.67;;;;;;;21.74;55.72;101063.06;;;;-48
2019/06/16 13:16:38;;;;;;;7.92;2.90;;;;;;;21.75;56.04;101061.59;;;;-50
2019/06/16 13:19:40;;;;;;;10.05;2.79;;;;;;;21.75;56.00;101056.05;;;;-47
2019/06/16 13:22:38;;;;;;;12.55;2.91;;;;;;;21.73;56.05;101054.28;;;;-46
2019/06/16 13:25:38;;;;;;;13.33;2.93;;;;;;;21.76;56.12;101061.80;;;;-48
2019/06/16 13:28:39;;;;;;;15.19;2.96;;;;;;;21.77;56.23;101059.05;;;;-49
2019/06/16 13:31:39;;;;;;;8.99;2.67;;;;;;;21.78;55.85;101060.05;;;;-49
2019/06/16 13:34:39;;;;;;;12.10;2.71;;;;;;;21.76;56.14;101062.72;;;;-47
2019/06/16 13:37:38;;;;;;;14.76;3.08;;;;;;;21.78;55.97;101062.73;;;;-51
2019/06/16 13:40:38;;;;;;;10.57;3.06;;;;;;;21.79;56.08;101058.75;;;;-46
2019/06/16 13:43:38;;;;;;;8.21;2.70;;;;;;;21.79;55.88;101051.59;;;;-48
2019/06/16 13:46:38;;;;;;;7.33;2.83;;;;;;;21.79;55.97;101052.59;;;;-50
2019/06/16 13:49:38;;;;;;;7.95;2.91;;;;;;;21.81;56.15;101049.08;;;;-51
2019/06/16 13:52:39;;;;;;;7.82;2.91;;;;;;;21.79;55.99;101046.31;;;;-51
2019/06/16 13:55:38;;;;;;;8.52;3.17;;;;;;;21.78;55.96;101047.09;;;;-51
2019/06/16 13:58:38;;;;;;;11.11;2.99;;;;;;;21.77;55.97;101042.69;;;;-51
2019/06/16 14:01:38;;;;;;;8.42;2.89;;;;;;;21.77;56.03;101043.92;;;;-51
2019/06/16 14:04:38;;;;;;;9.21;2.99;;;;;;;21.75;55.96;101040.24;;;;-51
2019/06/16 14:07:38;;;;;;;10.05;2.89;;;;;;;21.74;55.88;101042.89;;;;-50
2019/06/16 14:10:39;;;;;;;5.52;2.60;;;;;;;21.73;55.86;101039.48;;;;-51
2019/06/16 14:13:39;;;;;;;5.64;2.67;;;;;;;21.73;55.75;101042.84;;;;-52
2019/06/16 14:16:38;;;;;;;4.96;2.56;;;;;;;21.71;55.76;101039.56;;;;-51
2019/06/16 14:19:38;;;;;;;6.90;2.79;;;;;;;21.71;55.72;101039.33;;;;-51
2019/06/16 14:22:38;;;;;;;5.39;2.76;;;;;;;21.70;55.77;101035.04;;;;-51
2019/06/16 14:25:38;;;;;;;6.96;2.68;;;;;;;21.68;55.79;101029.78;;;;-51
2019/06/16 14:28:45;;;;;;;9.88;2.75;;;;;;;21.68;55.71;101031.13;;;;-51
2019/06/16 14:31:38;;;;;;;5.51;2.61;;;;;;;21.69;55.70;101031.13;;;;-51
2019/06/16 14:34:38;;;;;;;4.57;2.60;;;;;;;21.67;55.73;101034.91;;;;-51
2019/06/16 14:37:39;;;;;;;7.42;2.69;;;;;;;21.67;55.67;101031.71;;;;-51
2019/06/16 14:40:38;;;;;;;6.71;2.49;;;;;;;21.65;55.56;101029.77;;;;-51
2019/06/16 14:43:38;;;;;;;7.33;2.71;;;;;;;21.66;55.57;101030.66;;;;-51
2019/06/16 14:46:39;;;;;;;5.11;2.57;;;;;;;21.64;55.67;101029.70;;;;-51
2019/06/16 14:49:39;;;;;;;5.67;2.63;;;;;;;21.63;55.62;101033.02;;;;-51
2019/06/16 14:52:39;;;;;;;5.44;2.74;;;;;;;21.62;55.52;101031.25;;;;-51
2019/06/16 14:55:38;;;;;;;6.40;2.59;;;;;;;21.61;55.60;101026.00;;;;-51
2019/06/16 14:58:39;;;;;;;4.74;2.59;;;;;;;21.62;55.56;101023.08;;;;-51
2019/06/16 15:01:38;;;;;;;4.49;2.43;;;;;;;21.61;55.54;101020.66;;;;-51
2019/06/16 15:04:38;;;;;;;8.15;2.76;;;;;;;21.61;55.70;101021.56;;;;-53
2019/06/16 15:07:38;;;;;;;7.41;2.55;;;;;;;21.63;55.59;101015.50;;;;-56
2019/06/16 15:10:38;;;;;;;8.09;2.57;;;;;;;21.66;55.71;101017.08;;;;-52
2019/06/16 15:13:38;;;;;;;5.61;2.67;;;;;;;21.68;55.79;101012.97;;;;-52
2019/06/16 15:16:39;;;;;;;10.57;2.69;;;;;;;21.69;55.77;101014.09;;;;-54
2019/06/16 15:19:38;;;;;;;5.67;2.50;;;;;;;21.71;55.92;101008.46;;;;-51
2019/06/16 15:22:39;;;;;;;5.32;2.46;;;;;;;21.72;55.86;101006.31;;;;-51
2019/06/16 15:25:38;;;;;;;5.32;2.60;;;;;;;21.74;55.88;101008.19;;;;-51
2019/06/16 15:28:39;;;;;;;4.91;2.51;;;;;;;21.75;55.81;101008.02;;;;-57
2019/06/16 15:31:38;;;;;;;6.91;2.52;;;;;;;21.74;56.06;101005.23;;;;-55
2019/06/16 15:34:38;;;;;;;6.17;2.84;;;;;;;21.76;55.95;101006.22;;;;-53
2019/06/16 15:37:39;;;;;;;6.80;2.68;;;;;;;21.77;55.95;101011.08;;;;-53
2019/06/16 15:40:38;;;;;;;9.23;2.82;;;;;;;21.77;55.98;101011.14;;;;-57
2019/06/16 15:43:42;;;;;;;6.90;2.70;;;;;;;21.78;55.97;101009.44;;;;-51
2019/06/16 15:46:38;;;;;;;7.57;2.59;;;;;;;21.80;55.91;101009.93;;;;-52
2019/06/16 15:49:39;;;;;;;5.67;2.47;;;;;;;21.81;55.96;101011.99;;;;-52
2019/06/16 15:52:38;;;;;;;6.77;2.53;;;;;;;21.82;55.80;101011.86;;;;-59
2019/06/16 15:55:39;;;;;;;5.51;2.47;;;;;;;21.82;55.81;101009.84;;;;-49
2019/06/16 15:58:38;;;;;;;6.33;2.53;;;;;;;21.82;55.69;101007.09;;;;-56
2019/06/16 16:01:39;;;;;;;4.00;2.58;;;;;;;21.84;55.75;101006.74;;;;-53
2019/06/16 16:04:39;;;;;;;5.98;2.43;;;;;;;21.84;55.71;101002.27;;;;-61
2019/06/16 16:07:39;;;;;;;6.60;2.57;;;;;;;21.85;55.75;101005.60;;;;-47
2019/06/16 16:10:39;;;;;;;4.70;2.48;;;;;;;21.85;55.72;100998.95;;;;-45
2019/06/16 16:13:38;;;;;;;4.67;2.25;;;;;;;21.86;55.77;100999.16;;;;-46
2019/06/16 16:16:39;;;;;;;6.48;2.69;;;;;;;21.87;55.62;100996.28;;;;-47
2019/06/16 16:19:38;;;;;;;5.38;2.36;;;;;;;21.87;55.64;100998.63;;;;-58
2019/06/16 16:22:38;;;;;;;5.13;2.31;;;;;;;21.88;55.70;100998.23;;;;-60
2019/06/16 16:25:38;;;;;;;7.16;2.41;;;;;;;21.89;55.78;101002.19;;;;-54
2019/06/16 16:28:38;;;;;;;5.89;2.37;;;;;;;21.89;55.70;100997.38;;;;-54
2019/06/16 16:31:38;;;;;;;4.00;2.40;;;;;;;21.88;55.71;100996.92;;;;-65
2019/06/16 16:34:38;;;;;;;4.48;2.53;;;;;;;21.89;55.58;100993.50;;;;-62
2019/06/16 16:37:38;;;;;;;4.71;2.36;;;;;;;21.89;55.66;100993.16;;;;-59
2019/06/16 16:40:38;;;;;;;3.95;2.51;;;;;;;21.91;55.58;100995.91;;;;-58